sensor_id;sensor_type;location;lat;lon;timestamp;pressure;altitude;pressure_sealevel;temperature;humidity
72802;BME280;61891;55.818;37.084;2022-07-04T00:00:28;99465.41;;;19.90;47.54
72802;BME280;61891;55.818;37.084;2022-07-04T00:02:54;99442.63;;;19.75;47.53
72802;BME280;61891;55.818;37.084;2022-07-04T00:05:20;99457.72;;;19.76;47.79
72802;BME280;61891;55.818;37.084;2022-07-04T00:07:49;99465.78;;;19.76;47.82
72802;BME280;61891;55.818;37.084;2022-07-04T00:10:19;99455.31;;;19.68;48.62
72802;BME280;61891;55.818;37.084;2022-07-04T00:12:46;99461.34;;;19.63;48.45
72802;BME280;61891;55.818;37.084;2022-07-04T00:15:12;99464.50;;;19.60;49.88
72802;BME280;61891;55.818;37.084;2022-07-04T00:17:39;99465.59;;;19.52;48.94
72802;BME280;61891;55.818;37.084;2022-07-04T00:20:06;99432.91;;;19.30;49.36
72802;BME280;61891;55.818;37.084;2022-07-04T00:22:34;99444.88;;;19.35;49.46
72802;BME280;61891;55.818;37.084;2022-07-04T00:25:01;99467.94;;;19.42;49.14
72802;BME280;61891;55.818;37.084;2022-07-04T00:27:26;99465.94;;;19.38;50.20
72802;BME280;61891;55.818;37.084;2022-07-04T00:29:53;99463.13;;;19.26;49.25
72802;BME280;61891;55.818;37.084;2022-07-04T00:32:19;99461.06;;;19.28;49.65
72802;BME280;61891;55.818;37.084;2022-07-04T00:34:45;99467.84;;;19.30;49.59
72802;BME280;61891;55.818;37.084;2022-07-04T00:37:11;99471.59;;;19.29;50.29
72802;BME280;61891;55.818;37.084;2022-07-04T00:39:36;99456.19;;;19.18;49.90
72802;BME280;61891;55.818;37.084;2022-07-04T00:42:02;99470.22;;;19.20;50.46
72802;BME280;61891;55.818;37.084;2022-07-04T00:44:28;99477.25;;;19.21;50.00
72802;BME280;61891;55.818;37.084;2022-07-04T00:46:55;99472.31;;;19.18;50.13
72802;BME280;61891;55.818;37.084;2022-07-04T00:49:20;99461.84;;;19.10;50.44
72802;BME280;61891;55.818;37.084;2022-07-04T00:51:47;99469.44;;;19.13;50.33
72802;BME280;61891;55.818;37.084;2022-07-04T00:54:15;99463.69;;;19.10;50.49
72802;BME280;61891;55.818;37.084;2022-07-04T00:56:44;99448.72;;;18.95;50.65
72802;BME280;61891;55.818;37.084;2022-07-04T00:59:11;99460.47;;;19.01;50.64
72802;BME280;61891;55.818;37.084;2022-07-04T01:01:37;99476.09;;;19.11;50.98
72802;BME280;61891;55.818;37.084;2022-07-04T01:04:04;99479.81;;;19.10;50.76
72802;BME280;61891;55.818;37.084;2022-07-04T01:06:32;99476.31;;;19.09;50.85
72802;BME280;61891;55.818;37.084;2022-07-04T01:08:59;99468.31;;;19.03;51.01
72802;BME280;61891;55.818;37.084;2022-07-04T01:11:25;99461.13;;;18.96;51.08
72802;BME280;61891;55.818;37.084;2022-07-04T01:13:50;99432.97;;;18.74;50.86
72802;BME280;61891;55.818;37.084;2022-07-04T01:16:16;99477.41;;;19.02;50.98
72802;BME280;61891;55.818;37.084;2022-07-04T01:18:42;99445.91;;;18.84;51.46
72802;BME280;61891;55.818;37.084;2022-07-04T01:21:08;99478.66;;;18.99;51.50
72802;BME280;61891;55.818;37.084;2022-07-04T01:23:40;99472.91;;;18.95;51.94
72802;BME280;61891;55.818;37.084;2022-07-04T01:26:06;99449.03;;;18.81;51.30
72802;BME280;61891;55.818;37.084;2022-07-04T01:28:33;99457.50;;;18.84;51.71
72802;BME280;61891;55.818;37.084;2022-07-04T01:30:59;99472.28;;;18.93;51.58
72802;BME280;61891;55.818;37.084;2022-07-04T01:33:25;99458.97;;;18.80;51.57
72802;BME280;61891;55.818;37.084;2022-07-04T01:35:50;99465.75;;;18.83;51.61
72802;BME280;61891;55.818;37.084;2022-07-04T01:38:16;99468.00;;;18.86;51.86
72802;BME280;61891;55.818;37.084;2022-07-04T01:40:42;99433.91;;;18.61;51.50
72802;BME280;61891;55.818;37.084;2022-07-04T01:43:08;99481.19;;;18.94;51.97
72802;BME280;61891;55.818;37.084;2022-07-04T01:45:34;99481.78;;;18.96;52.26
72802;BME280;61891;55.818;37.084;2022-07-04T01:48:06;99467.16;;;18.92;52.14
72802;BME280;61891;55.818;37.084;2022-07-04T01:50:33;99467.31;;;18.97;51.99
72802;BME280;61891;55.818;37.084;2022-07-04T01:52:59;99486.66;;;19.06;52.00
72802;BME280;61891;55.818;37.084;2022-07-04T01:55:25;99480.03;;;19.08;51.92
72802;BME280;61891;55.818;37.084;2022-07-04T01:57:51;99479.22;;;19.08;51.12
72802;BME280;61891;55.818;37.084;2022-07-04T02:00:16;99479.16;;;19.14;52.28
72802;BME280;61891;55.818;37.084;2022-07-04T02:03:01;99485.75;;;19.18;52.04
72802;BME280;61891;55.818;37.084;2022-07-04T02:05:27;99483.66;;;19.20;51.96
72802;BME280;61891;55.818;37.084;2022-07-04T02:07:53;99491.28;;;19.23;52.35
72802;BME280;61891;55.818;37.084;2022-07-04T02:10:19;99488.16;;;19.26;52.55
72802;BME280;61891;55.818;37.084;2022-07-04T02:12:45;99493.91;;;19.30;52.15
72802;BME280;61891;55.818;37.084;2022-07-04T02:15:36;99491.22;;;19.30;52.91
72802;BME280;61891;55.818;37.084;2022-07-04T02:18:04;99486.66;;;19.30;52.26
72802;BME280;61891;55.818;37.084;2022-07-04T02:20:32;99480.25;;;19.31;51.92
72802;BME280;61891;55.818;37.084;2022-07-04T02:22:58;99489.25;;;19.44;52.03
72802;BME280;61891;55.818;37.084;2022-07-04T02:25:25;99495.59;;;19.49;52.00
72802;BME280;61891;55.818;37.084;2022-07-04T02:27:54;99501.75;;;19.56;52.02
72802;BME280;61891;55.818;37.084;2022-07-04T02:30:20;99478.22;;;19.52;51.89
72802;BME280;61891;55.818;37.084;2022-07-04T02:32:46;99486.59;;;19.62;52.05
72802;BME280;61891;55.818;37.084;2022-07-04T02:35:12;99494.16;;;19.72;51.89
72802;BME280;61891;55.818;37.084;2022-07-04T02:37:38;99499.47;;;19.78;52.32
72802;BME280;61891;55.818;37.084;2022-07-04T02:40:04;99502.91;;;19.85;51.85
72802;BME280;61891;55.818;37.084;2022-07-04T02:42:32;99496.03;;;19.89;52.04
72802;BME280;61891;55.818;37.084;2022-07-04T02:44:58;99498.66;;;19.96;51.67
72802;BME280;61891;55.818;37.084;2022-07-04T02:47:24;99496.72;;;20.03;52.16
72802;BME280;61891;55.818;37.084;2022-07-04T02:49:50;99501.19;;;20.09;51.83
72802;BME280;61891;55.818;37.084;2022-07-04T02:52:16;99502.75;;;20.17;51.58
72802;BME280;61891;55.818;37.084;2022-07-04T02:54:42;99497.75;;;20.20;50.38
72802;BME280;61891;55.818;37.084;2022-07-04T02:57:08;99510.91;;;20.28;51.55
72802;BME280;61891;55.818;37.084;2022-07-04T02:59:34;99500.06;;;20.35;51.09
72802;BME280;61891;55.818;37.084;2022-07-04T03:02:00;99513.22;;;20.43;51.42
72802;BME280;61891;55.818;37.084;2022-07-04T03:04:26;99517.25;;;20.52;51.49
72802;BME280;61891;55.818;37.084;2022-07-04T03:06:52;99506.47;;;20.52;51.33
72802;BME280;61891;55.818;37.084;2022-07-04T03:09:18;99514.16;;;20.67;51.39
72802;BME280;61891;55.818;37.084;2022-07-04T03:11:44;99514.50;;;20.71;51.31
72802;BME280;61891;55.818;37.084;2022-07-04T03:14:10;99517.56;;;20.74;51.07
72802;BME280;61891;55.818;37.084;2022-07-04T03:16:36;99521.16;;;20.86;50.61
72802;BME280;61891;55.818;37.084;2022-07-04T03:19:01;99520.00;;;20.94;51.13
72802;BME280;61891;55.818;37.084;2022-07-04T03:21:27;99518.03;;;21.01;50.94
72802;BME280;61891;55.818;37.084;2022-07-04T03:23:53;99522.50;;;21.07;51.13
72802;BME280;61891;55.818;37.084;2022-07-04T03:26:30;99501.41;;;21.04;50.71
72802;BME280;61891;55.818;37.084;2022-07-04T03:28:56;99518.78;;;21.20;50.30
72802;BME280;61891;55.818;37.084;2022-07-04T03:31:23;99520.81;;;21.25;50.54
72802;BME280;61891;55.818;37.084;2022-07-04T03:33:49;99470.81;;;20.99;50.56
72802;BME280;61891;55.818;37.084;2022-07-04T03:36:14;99516.13;;;21.32;50.71
72802;BME280;61891;55.818;37.084;2022-07-04T03:38:41;99505.00;;;21.28;50.74
72802;BME280;61891;55.818;37.084;2022-07-04T03:41:06;99517.66;;;21.39;50.78
72802;BME280;61891;55.818;37.084;2022-07-04T03:43:32;99527.16;;;21.42;50.43
72802;BME280;61891;55.818;37.084;2022-07-04T03:45:57;99519.19;;;21.47;51.28
72802;BME280;61891;55.818;37.084;2022-07-04T03:48:23;99488.81;;;21.28;50.54
72802;BME280;61891;55.818;37.084;2022-07-04T03:50:49;99531.84;;;21.58;50.72
72802;BME280;61891;55.818;37.084;2022-07-04T03:53:14;99522.00;;;21.64;50.07
72802;BME280;61891;55.818;37.084;2022-07-04T03:55:41;99530.81;;;21.71;50.24
72802;BME280;61891;55.818;37.084;2022-07-04T03:58:07;99517.06;;;21.72;50.12
72802;BME280;61891;55.818;37.084;2022-07-04T04:00:33;99525.75;;;21.86;50.40
72802;BME280;61891;55.818;37.084;2022-07-04T04:02:58;99512.25;;;21.86;49.77
72802;BME280;61891;55.818;37.084;2022-07-04T04:05:24;99526.91;;;22.02;50.64
72802;BME280;61891;55.818;37.084;2022-07-04T04:07:54;99524.34;;;22.07;50.36
72802;BME280;61891;55.818;37.084;2022-07-04T04:10:20;99491.59;;;21.92;49.88
72802;BME280;61891;55.818;37.084;2022-07-04T04:12:46;99508.72;;;22.09;50.15
72802;BME280;61891;55.818;37.084;2022-07-04T04:15:12;99522.88;;;22.28;50.59
72802;BME280;61891;55.818;37.084;2022-07-04T04:17:40;99475.75;;;22.07;49.94
72802;BME280;61891;55.818;37.084;2022-07-04T04:20:06;99517.78;;;22.43;50.08
72802;BME280;61891;55.818;37.084;2022-07-04T04:22:34;99514.84;;;22.44;49.66
72802;BME280;61891;55.818;37.084;2022-07-04T04:25:00;99501.94;;;22.46;49.10
72802;BME280;61891;55.818;37.084;2022-07-04T04:27:25;99524.06;;;22.60;49.65
72802;BME280;61891;55.818;37.084;2022-07-04T04:29:51;99509.84;;;22.65;49.52
72802;BME280;61891;55.818;37.084;2022-07-04T04:32:17;99520.34;;;22.78;50.13
72802;BME280;61891;55.818;37.084;2022-07-04T04:34:42;99522.22;;;22.89;49.57
72802;BME280;61891;55.818;37.084;2022-07-04T04:37:08;99520.25;;;23.01;50.11
72802;BME280;61891;55.818;37.084;2022-07-04T04:39:36;99525.09;;;23.16;49.61
72802;BME280;61891;55.818;37.084;2022-07-04T04:42:02;99520.44;;;23.28;48.97
72802;BME280;61891;55.818;37.084;2022-07-04T04:44:28;99526.34;;;23.42;48.59
72802;BME280;61891;55.818;37.084;2022-07-04T04:46:53;99524.41;;;23.54;49.24
72802;BME280;61891;55.818;37.084;2022-07-04T04:49:20;99513.41;;;23.61;48.52
72802;BME280;61891;55.818;37.084;2022-07-04T04:51:45;99504.03;;;23.68;47.91
72802;BME280;61891;55.818;37.084;2022-07-04T04:54:11;99529.84;;;23.93;48.42
72802;BME280;61891;55.818;37.084;2022-07-04T04:56:37;99513.28;;;23.89;48.17
72802;BME280;61891;55.818;37.084;2022-07-04T04:59:02;99530.34;;;24.11;48.52
72802;BME280;61891;55.818;37.084;2022-07-04T05:01:28;99528.34;;;24.24;47.99
72802;BME280;61891;55.818;37.084;2022-07-04T05:03:54;99528.00;;;24.37;47.43
72802;BME280;61891;55.818;37.084;2022-07-04T05:06:19;99535.75;;;24.50;47.93
72802;BME280;61891;55.818;37.084;2022-07-04T05:08:45;99526.59;;;24.56;47.60
72802;BME280;61891;55.818;37.084;2022-07-04T05:11:14;99541.44;;;24.75;47.38
72802;BME280;61891;55.818;37.084;2022-07-04T05:13:45;99530.19;;;24.89;47.14
72802;BME280;61891;55.818;37.084;2022-07-04T05:16:13;99538.81;;;25.08;46.92
72802;BME280;61891;55.818;37.084;2022-07-04T05:18:39;99521.50;;;25.14;46.35
72802;BME280;61891;55.818;37.084;2022-07-04T05:21:05;99546.69;;;25.41;45.73
72802;BME280;61891;55.818;37.084;2022-07-04T05:23:31;99554.41;;;25.54;45.94
72802;BME280;61891;55.818;37.084;2022-07-04T05:25:59;99542.59;;;25.70;46.02
72802;BME280;61891;55.818;37.084;2022-07-04T05:28:25;99542.16;;;25.84;45.64
72802;BME280;61891;55.818;37.084;2022-07-04T05:30:51;99534.59;;;25.96;44.93
72802;BME280;61891;55.818;37.084;2022-07-04T05:33:17;99537.69;;;26.05;43.81
72802;BME280;61891;55.818;37.084;2022-07-04T05:35:43;99532.03;;;26.16;43.91
72802;BME280;61891;55.818;37.084;2022-07-04T05:38:11;99532.34;;;26.25;43.67
72802;BME280;61891;55.818;37.084;2022-07-04T05:40:37;99528.59;;;26.36;43.44
72802;BME280;61891;55.818;37.084;2022-07-04T05:43:03;99529.47;;;26.47;43.07
72802;BME280;61891;55.818;37.084;2022-07-04T05:45:29;99527.03;;;26.55;43.01
72802;BME280;61891;55.818;37.084;2022-07-04T05:47:54;99526.25;;;26.65;42.63
72802;BME280;61891;55.818;37.084;2022-07-04T05:50:20;99521.38;;;26.67;41.85
72802;BME280;61891;55.818;37.084;2022-07-04T05:52:46;99529.53;;;26.77;41.67
72802;BME280;61891;55.818;37.084;2022-07-04T05:55:14;99521.94;;;26.84;41.28
72802;BME280;61891;55.818;37.084;2022-07-04T05:57:40;99506.69;;;26.78;40.84
72802;BME280;61891;55.818;37.084;2022-07-04T06:00:06;99528.50;;;26.93;40.78
72802;BME280;61891;55.818;37.084;2022-07-04T06:02:32;99520.34;;;26.99;40.81
72802;BME280;61891;55.818;37.084;2022-07-04T06:04:57;99512.75;;;27.01;40.57
72802;BME280;61891;55.818;37.084;2022-07-04T06:07:23;99523.63;;;27.21;40.76
72802;BME280;61891;55.818;37.084;2022-07-04T06:09:49;99533.44;;;27.37;40.45
72802;BME280;61891;55.818;37.084;2022-07-04T06:12:14;99526.63;;;27.50;39.86
72802;BME280;61891;55.818;37.084;2022-07-04T06:14:40;99528.28;;;27.61;39.65
72802;BME280;61891;55.818;37.084;2022-07-04T06:17:06;99516.00;;;27.74;39.55
72802;BME280;61891;55.818;37.084;2022-07-04T06:19:32;99518.13;;;27.92;39.33
72802;BME280;61891;55.818;37.084;2022-07-04T06:21:57;99521.63;;;28.08;38.84
72802;BME280;61891;55.818;37.084;2022-07-04T06:24:23;99506.06;;;28.18;38.80
72802;BME280;61891;55.818;37.084;2022-07-04T06:26:49;99499.78;;;28.23;38.11
72802;BME280;61891;55.818;37.084;2022-07-04T06:29:15;99510.34;;;28.40;37.66
72802;BME280;61891;55.818;37.084;2022-07-04T06:31:41;99519.56;;;28.54;37.65
72802;BME280;61891;55.818;37.084;2022-07-04T06:34:06;99506.44;;;28.56;36.52
72802;BME280;61891;55.818;37.084;2022-07-04T06:36:50;99509.41;;;28.65;36.31
72802;BME280;61891;55.818;37.084;2022-07-04T06:39:16;99519.69;;;28.83;36.44
72802;BME280;61891;55.818;37.084;2022-07-04T06:41:45;99519.91;;;28.92;36.00
72802;BME280;61891;55.818;37.084;2022-07-04T06:44:10;99505.97;;;28.93;36.06
72802;BME280;61891;55.818;37.084;2022-07-04T06:46:36;99515.47;;;29.01;36.04
72802;BME280;61891;55.818;37.084;2022-07-04T06:49:02;99501.81;;;29.01;35.97
72802;BME280;61891;55.818;37.084;2022-07-04T06:51:28;99517.25;;;29.15;35.34
72802;BME280;61891;55.818;37.084;2022-07-04T06:53:53;99513.63;;;29.25;35.19
72802;BME280;61891;55.818;37.084;2022-07-04T06:56:19;99491.31;;;29.18;35.13
72802;BME280;61891;55.818;37.084;2022-07-04T06:58:47;99502.91;;;29.34;35.01
72802;BME280;61891;55.818;37.084;2022-07-04T07:01:15;99481.38;;;29.27;34.78
72802;BME280;61891;55.818;37.084;2022-07-04T07:03:41;99517.19;;;29.60;35.21
72802;BME280;61891;55.818;37.084;2022-07-04T07:06:10;99522.31;;;29.66;34.40
72802;BME280;61891;55.818;37.084;2022-07-04T07:08:36;99518.19;;;29.69;34.70
72802;BME280;61891;55.818;37.084;2022-07-04T07:11:01;99515.16;;;29.70;34.40
72802;BME280;61891;55.818;37.084;2022-07-04T07:13:45;99517.31;;;29.73;33.98
72802;BME280;61891;55.818;37.084;2022-07-04T07:16:11;99514.75;;;29.82;34.07
72802;BME280;61891;55.818;37.084;2022-07-04T07:18:37;99518.44;;;29.96;33.75
72802;BME280;61891;55.818;37.084;2022-07-04T07:21:03;99502.09;;;29.91;33.11
72802;BME280;61891;55.818;37.084;2022-07-04T07:23:29;99511.25;;;30.05;33.17
72802;BME280;61891;55.818;37.084;2022-07-04T07:25:55;99507.06;;;30.13;32.96
72802;BME280;61891;55.818;37.084;2022-07-04T07:28:21;99503.66;;;30.21;33.04
72802;BME280;61891;55.818;37.084;2022-07-04T07:30:47;99503.53;;;30.31;32.41
72802;BME280;61891;55.818;37.084;2022-07-04T07:33:12;99500.38;;;30.43;32.55
72802;BME280;61891;55.818;37.084;2022-07-04T07:35:38;99506.31;;;30.50;32.28
72802;BME280;61891;55.818;37.084;2022-07-04T07:38:04;99476.63;;;30.38;31.93
72802;BME280;61891;55.818;37.084;2022-07-04T07:40:31;99504.25;;;30.61;31.22
72802;BME280;61891;55.818;37.084;2022-07-04T07:42:57;99452.59;;;30.35;31.14
72802;BME280;61891;55.818;37.084;2022-07-04T07:45:24;99507.16;;;30.69;31.38
72802;BME280;61891;55.818;37.084;2022-07-04T07:47:50;99498.78;;;30.79;31.23
72802;BME280;61891;55.818;37.084;2022-07-04T07:50:16;99501.38;;;30.90;31.06
72802;BME280;61891;55.818;37.084;2022-07-04T07:52:41;99507.81;;;30.99;31.08
72802;BME280;61891;55.818;37.084;2022-07-04T07:55:13;99481.09;;;30.91;30.76
72802;BME280;61891;55.818;37.084;2022-07-04T07:57:38;99500.47;;;31.13;30.70
72802;BME280;61891;55.818;37.084;2022-07-04T08:00:05;99492.25;;;31.13;30.40
72802;BME280;61891;55.818;37.084;2022-07-04T08:35:55;99504.03;;;31.79;29.96
72802;BME280;61891;55.818;37.084;2022-07-04T08:38:23;99503.25;;;32.05;29.09
72802;BME280;61891;55.818;37.084;2022-07-04T08:40:51;99489.81;;;32.45;28.41
72802;BME280;61891;55.818;37.084;2022-07-04T08:47:22;99483.28;;;33.67;26.58
72802;BME280;61891;55.818;37.084;2022-07-04T08:50:25;99502.66;;;34.32;25.89
72802;BME280;61891;55.818;37.084;2022-07-04T08:52:59;99492.34;;;34.81;25.47
72802;BME280;61891;55.818;37.084;2022-07-04T08:55:25;99491.03;;;35.30;25.31
72802;BME280;61891;55.818;37.084;2022-07-04T08:58:10;99491.28;;;35.63;24.96
72802;BME280;61891;55.818;37.084;2022-07-04T09:00:58;99502.34;;;36.01;24.13
72802;BME280;61891;55.818;37.084;2022-07-04T09:03:25;99502.00;;;36.41;24.20
72802;BME280;61891;55.818;37.084;2022-07-04T09:05:52;99494.97;;;36.73;23.87
72802;BME280;61891;55.818;37.084;2022-07-04T09:08:18;99487.63;;;36.98;23.90
72802;BME280;61891;55.818;37.084;2022-07-04T09:10:44;99490.81;;;37.21;23.17
72802;BME280;61891;55.818;37.084;2022-07-04T09:13:11;99492.53;;;37.46;22.91
72802;BME280;61891;55.818;37.084;2022-07-04T09:15:38;99501.44;;;37.64;22.50
72802;BME280;61891;55.818;37.084;2022-07-04T09:18:04;99491.56;;;37.75;22.62
72802;BME280;61891;55.818;37.084;2022-07-04T09:20:32;99467.47;;;37.88;22.00
72802;BME280;61891;55.818;37.084;2022-07-04T09:22:58;99501.63;;;38.28;22.07
72802;BME280;61891;55.818;37.084;2022-07-04T09:25:25;99501.81;;;38.60;21.46
72802;BME280;61891;55.818;37.084;2022-07-04T09:27:56;99489.16;;;38.87;21.20
72802;BME280;61891;55.818;37.084;2022-07-04T09:30:25;99490.84;;;38.91;20.92
72802;BME280;61891;55.818;37.084;2022-07-04T09:32:52;99495.22;;;39.05;20.64
72802;BME280;61891;55.818;37.084;2022-07-04T09:35:27;99466.63;;;38.88;20.31
72802;BME280;61891;55.818;37.084;2022-07-04T09:37:55;99494.13;;;39.37;20.80
72802;BME280;61891;55.818;37.084;2022-07-04T09:42:51;99476.44;;;39.73;20.24
72802;BME280;61891;55.818;37.084;2022-07-04T09:45:17;99477.25;;;39.89;19.42
72802;BME280;61891;55.818;37.084;2022-07-04T09:47:44;99477.78;;;40.11;19.52
72802;BME280;61891;55.818;37.084;2022-07-04T09:50:17;99452.88;;;40.14;18.57
72802;BME280;61891;55.818;37.084;2022-07-04T09:52:50;99485.94;;;40.54;18.92
72802;BME280;61891;55.818;37.084;2022-07-04T09:55:29;99483.81;;;40.67;18.38
72802;BME280;61891;55.818;37.084;2022-07-04T09:58:01;99466.66;;;40.81;18.81
72802;BME280;61891;55.818;37.084;2022-07-04T10:00:35;99470.69;;;40.83;17.53
72802;BME280;61891;55.818;37.084;2022-07-04T10:05:44;99452.75;;;41.00;18.47
72802;BME280;61891;55.818;37.084;2022-07-04T10:08:10;99466.84;;;41.30;18.63
72802;BME280;61891;55.818;37.084;2022-07-04T10:10:37;99468.22;;;41.40;18.22
72802;BME280;61891;55.818;37.084;2022-07-04T10:13:10;99452.00;;;41.45;17.06
72802;BME280;61891;55.818;37.084;2022-07-04T10:15:41;99430.97;;;41.48;17.78
72802;BME280;61891;55.818;37.084;2022-07-04T10:18:08;99461.44;;;41.83;17.98
72802;BME280;61891;55.818;37.084;2022-07-04T10:20:35;99453.31;;;41.97;17.28
72802;BME280;61891;55.818;37.084;2022-07-04T10:23:01;99457.97;;;42.16;17.44
72802;BME280;61891;55.818;37.084;2022-07-04T10:25:27;99472.47;;;42.55;17.28
72802;BME280;61891;55.818;37.084;2022-07-04T10:27:55;99446.38;;;42.70;16.76
72802;BME280;61891;55.818;37.084;2022-07-04T10:30:29;99448.25;;;42.93;16.34
72802;BME280;61891;55.818;37.084;2022-07-04T10:32:58;99452.16;;;43.22;16.73
72802;BME280;61891;55.818;37.084;2022-07-04T10:38:12;99426.41;;;43.35;16.22
72802;BME280;61891;55.818;37.084;2022-07-04T10:48:51;99433.13;;;43.75;15.44
72802;BME280;61891;55.818;37.084;2022-07-04T10:51:36;99441.59;;;43.86;15.66
72802;BME280;61891;55.818;37.084;2022-07-04T10:54:05;99436.63;;;44.16;15.27
72802;BME280;61891;55.818;37.084;2022-07-04T10:56:39;99419.63;;;44.46;15.02
72802;BME280;61891;55.818;37.084;2022-07-04T10:59:22;99413.31;;;44.74;15.06
72802;BME280;61891;55.818;37.084;2022-07-04T11:01:57;99438.63;;;45.10;14.88
72802;BME280;61891;55.818;37.084;2022-07-04T11:04:56;99407.81;;;44.99;13.84
72802;BME280;61891;55.818;37.084;2022-07-04T11:18:03;99367.06;;;45.44;14.05
72802;BME280;61891;55.818;37.084;2022-07-04T11:20:32;99417.78;;;46.21;13.89
72802;BME280;61891;55.818;37.084;2022-07-04T11:23:11;99426.88;;;46.61;13.62
72802;BME280;61891;55.818;37.084;2022-07-04T11:25:44;99423.53;;;46.94;13.13
72802;BME280;61891;55.818;37.084;2022-07-04T11:30:58;99387.28;;;47.21;12.74
72802;BME280;61891;55.818;37.084;2022-07-04T11:33:31;99417.38;;;47.69;12.59
72802;BME280;61891;55.818;37.084;2022-07-04T11:36:06;99416.06;;;47.84;12.49
72802;BME280;61891;55.818;37.084;2022-07-04T11:38:46;99402.44;;;47.79;11.82
72802;BME280;61891;55.818;37.084;2022-07-04T11:41:12;99410.81;;;47.86;12.78
72802;BME280;61891;55.818;37.084;2022-07-04T11:43:57;99409.97;;;47.89;12.87
72802;BME280;61891;55.818;37.084;2022-07-04T11:46:41;99405.78;;;48.04;12.85
72802;BME280;61891;55.818;37.084;2022-07-04T11:49:10;99389.72;;;48.05;11.91
72802;BME280;61891;55.818;37.084;2022-07-04T11:51:45;99402.06;;;48.49;11.85
72802;BME280;61891;55.818;37.084;2022-07-04T11:54:12;99401.44;;;48.68;12.05
72802;BME280;61891;55.818;37.084;2022-07-04T11:56:38;99362.69;;;48.49;12.00
72802;BME280;61891;55.818;37.084;2022-07-04T11:59:14;99368.88;;;48.67;10.97
72802;BME280;61891;55.818;37.084;2022-07-04T12:01:44;99386.59;;;48.94;11.07
72802;BME280;61891;55.818;37.084;2022-07-04T12:04:17;99408.78;;;49.16;12.08
72802;BME280;61891;55.818;37.084;2022-07-04T12:06:48;99393.63;;;49.33;11.40
72802;BME280;61891;55.818;37.084;2022-07-04T12:09:14;99382.25;;;49.40;11.76
72802;BME280;61891;55.818;37.084;2022-07-04T12:11:58;99399.28;;;49.33;10.70
72802;BME280;61891;55.818;37.084;2022-07-04T12:14:27;99363.41;;;49.10;11.13
72802;BME280;61891;55.818;37.084;2022-07-04T12:17:16;99396.75;;;49.38;10.49
72802;BME280;61891;55.818;37.084;2022-07-04T12:19:53;99392.66;;;49.66;11.21
72802;BME280;61891;55.818;37.084;2022-07-04T12:22:42;99380.03;;;49.75;10.83
72802;BME280;61891;55.818;37.084;2022-07-04T12:25:24;99338.97;;;49.74;10.49
72802;BME280;61891;55.818;37.084;2022-07-04T12:28:04;99386.16;;;50.33;9.92
72802;BME280;61891;55.818;37.084;2022-07-04T12:30:47;99380.00;;;50.18;11.19
72802;BME280;61891;55.818;37.084;2022-07-04T12:33:13;99374.00;;;50.36;10.78
72802;BME280;61891;55.818;37.084;2022-07-04T12:36:00;99355.88;;;50.53;10.69
72802;BME280;61891;55.818;37.084;2022-07-04T12:40:58;99375.22;;;51.07;10.57
72802;BME280;61891;55.818;37.084;2022-07-04T12:43:26;99339.19;;;50.78;10.60
72802;BME280;61891;55.818;37.084;2022-07-04T12:46:10;99370.53;;;51.16;10.35
72802;BME280;61891;55.818;37.084;2022-07-04T12:48:37;99369.56;;;51.23;10.31
72802;BME280;61891;55.818;37.084;2022-07-04T12:51:24;99352.81;;;51.32;9.42
72802;BME280;61891;55.818;37.084;2022-07-04T12:53:51;99364.09;;;51.48;10.24
72802;BME280;61891;55.818;37.084;2022-07-04T12:56:46;99361.81;;;51.43;9.04
72802;BME280;61891;55.818;37.084;2022-07-04T12:59:16;99341.13;;;51.30;9.82
72802;BME280;61891;55.818;37.084;2022-07-04T13:01:46;99355.06;;;51.53;9.84
72802;BME280;61891;55.818;37.084;2022-07-04T13:04:13;99347.31;;;51.41;10.12
72802;BME280;61891;55.818;37.084;2022-07-04T13:06:39;99354.13;;;51.44;9.94
72802;BME280;61891;55.818;37.084;2022-07-04T13:09:05;99360.00;;;51.66;9.80
72802;BME280;61891;55.818;37.084;2022-07-04T13:11:35;99335.97;;;51.57;9.02
72802;BME280;61891;55.818;37.084;2022-07-04T13:14:20;99350.13;;;51.57;9.95
72802;BME280;61891;55.818;37.084;2022-07-04T13:16:46;99347.28;;;51.57;10.16
72802;BME280;61891;55.818;37.084;2022-07-04T13:19:11;99345.16;;;51.62;9.73
72802;BME280;61891;55.818;37.084;2022-07-04T13:21:37;99348.50;;;51.73;9.46
72802;BME280;61891;55.818;37.084;2022-07-04T13:24:03;99344.59;;;51.83;9.60
72802;BME280;61891;55.818;37.084;2022-07-04T13:26:29;99340.22;;;51.95;9.52
72802;BME280;61891;55.818;37.084;2022-07-04T13:28:58;99333.50;;;52.05;9.18
72802;BME280;61891;55.818;37.084;2022-07-04T13:31:24;99327.06;;;52.04;9.54
72802;BME280;61891;55.818;37.084;2022-07-04T13:33:49;99337.16;;;52.18;9.07
72802;BME280;61891;55.818;37.084;2022-07-04T13:36:15;99322.22;;;52.17;9.46
72802;BME280;61891;55.818;37.084;2022-07-04T13:38:41;99319.16;;;52.25;9.81
72802;BME280;61891;55.818;37.084;2022-07-04T13:41:07;99319.94;;;52.25;9.41
72802;BME280;61891;55.818;37.084;2022-07-04T13:43:33;99318.81;;;52.23;9.33
72802;BME280;61891;55.818;37.084;2022-07-04T13:45:58;99314.94;;;52.04;9.48
72802;BME280;61891;55.818;37.084;2022-07-04T13:48:24;99324.84;;;51.67;9.33
72802;BME280;61891;55.818;37.084;2022-07-04T13:50:50;99316.78;;;51.36;9.67
72802;BME280;61891;55.818;37.084;2022-07-04T13:53:16;99335.50;;;51.14;9.54
72802;BME280;61891;55.818;37.084;2022-07-04T13:55:42;99333.38;;;51.18;9.89
72802;BME280;61891;55.818;37.084;2022-07-04T13:58:09;99328.00;;;51.07;10.10
72802;BME280;61891;55.818;37.084;2022-07-04T14:00:36;99329.00;;;49.89;10.98
72802;BME280;61891;55.818;37.084;2022-07-04T14:03:03;99319.81;;;49.42;10.00
72802;BME280;61891;55.818;37.084;2022-07-04T14:05:30;99276.16;;;49.06;10.68